sensor_id;sensor_type;location;lat;lon;timestamp;pressure;altitude;pressure_sealevel;temperature;humidity
75617;BME280;64200;55.426;37.758;2023-02-15T00:02:33;99492.97;;;0.12;60.32
75617;BME280;64200;55.426;37.758;2023-02-15T00:07:33;99490.63;;;0.11;60.17
75617;BME280;64200;55.426;37.758;2023-02-15T00:12:34;99502.41;;;0.04;60.17
75617;BME280;64200;55.426;37.758;2023-02-15T00:17:35;99507.50;;;0.02;60.15
75617;BME280;64200;55.426;37.758;2023-02-15T00:22:35;99494.53;;;0.13;59.45
75617;BME280;64200;55.426;37.758;2023-02-15T00:27:35;99503.88;;;0.27;59.35
75617;BME280;64200;55.426;37.758;2023-02-15T00:32:36;99507.47;;;0.13;59.46
75617;BME280;64200;55.426;37.758;2023-02-15T00:37:36;99503.19;;;0.05;59.59
75617;BME280;64200;55.426;37.758;2023-02-15T00:42:37;99491.44;;;0.04;59.56
75617;BME280;64200;55.426;37.758;2023-02-15T00:47:37;99486.75;;;-0.06;60.00
75617;BME280;64200;55.426;37.758;2023-02-15T00:52:38;99515.31;;;0.11;60.51
75617;BME280;64200;55.426;37.758;2023-02-15T00:57:38;99514.91;;;0.09;59.09
75617;BME280;64200;55.426;37.758;2023-02-15T01:02:39;99512.63;;;0.00;58.96
75617;BME280;64200;55.426;37.758;2023-02-15T01:07:39;99518.44;;;0.06;59.44
75617;BME280;64200;55.426;37.758;2023-02-15T01:12:40;99513.00;;;0.02;59.38
75617;BME280;64200;55.426;37.758;2023-02-15T01:17:40;99526.34;;;0.00;59.83
75617;BME280;64200;55.426;37.758;2023-02-15T01:22:41;99516.09;;;0.11;59.51
75617;BME280;64200;55.426;37.758;2023-02-15T01:27:42;99515.72;;;0.09;59.40
75617;BME280;64200;55.426;37.758;2023-02-15T01:32:43;99514.91;;;0.09;60.06
75617;BME280;64200;55.426;37.758;2023-02-15T01:37:44;99514.91;;;0.09;59.21
75617;BME280;64200;55.426;37.758;2023-02-15T01:42:44;99527.00;;;0.22;59.62
75617;BME280;64200;55.426;37.758;2023-02-15T01:47:52;99535.69;;;0.13;59.38
75617;BME280;64200;55.426;37.758;2023-02-15T01:53:03;99531.25;;;0.34;59.36
75617;BME280;64200;55.426;37.758;2023-02-15T01:58:05;99535.69;;;0.13;59.37
75617;BME280;64200;55.426;37.758;2023-02-15T02:03:06;99532.53;;;0.11;59.98
75617;BME280;64200;55.426;37.758;2023-02-15T02:08:07;99541.59;;;-0.03;59.98
75617;BME280;64200;55.426;37.758;2023-02-15T02:13:11;99534.91;;;0.06;59.65
75617;BME280;64200;55.426;37.758;2023-02-15T02:18:29;99547.88;;;-0.02;59.71
75617;BME280;64200;55.426;37.758;2023-02-15T02:24:03;99554.53;;;0.01;59.15
75617;BME280;64200;55.426;37.758;2023-02-15T02:39:41;99568.63;;;0.06;59.17
75617;BME280;64200;55.426;37.758;2023-02-15T02:44:52;99567.44;;;0.04;58.81
75617;BME280;64200;55.426;37.758;2023-02-15T02:50:04;99569.78;;;0.05;59.34
75617;BME280;64200;55.426;37.758;2023-02-15T03:00:12;99572.13;;;0.07;58.81
75617;BME280;64200;55.426;37.758;2023-02-15T03:05:17;99570.97;;;0.01;58.70
75617;BME280;64200;55.426;37.758;2023-02-15T03:10:22;99582.31;;;0.03;58.15
75617;BME280;64200;55.426;37.758;2023-02-15T03:15:33;99586.25;;;-0.09;57.98
75617;BME280;64200;55.426;37.758;2023-02-15T03:20:55;99587.41;;;0.04;58.19
75617;BME280;64200;55.426;37.758;2023-02-15T03:25:59;99587.78;;;0.17;57.27
75617;BME280;64200;55.426;37.758;2023-02-15T03:31:03;99594.06;;;0.10;57.96
75617;BME280;64200;55.426;37.758;2023-02-15T03:36:11;99589.38;;;0.11;58.00
75617;BME280;64200;55.426;37.758;2023-02-15T03:41:19;99595.63;;;0.04;57.52
75617;BME280;64200;55.426;37.758;2023-02-15T03:46:47;99596.81;;;0.07;57.71
75617;BME280;64200;55.426;37.758;2023-02-15T03:51:53;99590.94;;;0.08;57.48
75617;BME280;64200;55.426;37.758;2023-02-15T03:56:57;99591.75;;;0.02;57.20
75617;BME280;64200;55.426;37.758;2023-02-15T04:02:23;99593.66;;;0.12;57.74
75617;BME280;64200;55.426;37.758;2023-02-15T04:07:27;99603.09;;;-0.04;57.26
75617;BME280;64200;55.426;37.758;2023-02-15T04:12:28;99607.81;;;-0.08;57.59
75617;BME280;64200;55.426;37.758;2023-02-15T04:17:29;99610.94;;;-0.02;57.44
75617;BME280;64200;55.426;37.758;2023-02-15T04:22:29;99613.69;;;-0.09;57.38
75617;BME280;64200;55.426;37.758;2023-02-15T04:27:50;99619.16;;;0.02;57.02
75617;BME280;64200;55.426;37.758;2023-02-15T04:32:51;99611.72;;;-0.12;57.29
75617;BME280;64200;55.426;37.758;2023-02-15T04:37:53;99609.41;;;-0.21;57.43
75617;BME280;64200;55.426;37.758;2023-02-15T04:42:53;99600.78;;;-0.27;57.35
75617;BME280;64200;55.426;37.758;2023-02-15T04:47:54;99607.06;;;-0.41;57.69
75617;BME280;64200;55.426;37.758;2023-02-15T04:52:54;99615.69;;;-0.35;57.95
75617;BME280;64200;55.426;37.758;2023-02-15T04:57:55;99609.81;;;-0.41;56.99
75617;BME280;64200;55.426;37.758;2023-02-15T05:02:55;99616.44;;;-0.34;57.31
75617;BME280;64200;55.426;37.758;2023-02-15T05:07:56;99620.38;;;-0.36;57.21
75617;BME280;64200;55.426;37.758;2023-02-15T05:12:56;99617.63;;;-0.54;57.58
75617;BME280;64200;55.426;37.758;2023-02-15T05:17:57;99617.63;;;-0.50;58.23
75617;BME280;64200;55.426;37.758;2023-02-15T05:22:57;99627.81;;;-0.47;57.31
75617;BME280;64200;55.426;37.758;2023-02-15T05:27:58;99640.75;;;-0.29;57.47
75617;BME280;64200;55.426;37.758;2023-02-15T05:33:17;99638.00;;;-0.22;57.25
75617;BME280;64200;55.426;37.758;2023-02-15T05:38:19;99630.13;;;-0.16;56.65
75617;BME280;64200;55.426;37.758;2023-02-15T05:43:20;99625.84;;;-0.28;56.19
75617;BME280;64200;55.426;37.758;2023-02-15T05:48:23;99645.03;;;-0.10;56.07
75617;BME280;64200;55.426;37.758;2023-02-15T05:53:24;99642.66;;;-0.05;55.86
75617;BME280;64200;55.426;37.758;2023-02-15T05:58:29;99643.03;;;0.12;55.68
75617;BME280;64200;55.426;37.758;2023-02-15T06:03:30;99652.44;;;0.18;55.20
75617;BME280;64200;55.426;37.758;2023-02-15T06:08:31;99644.59;;;0.13;55.03
75617;BME280;64200;55.426;37.758;2023-02-15T06:13:32;99653.63;;;0.06;55.63
75617;BME280;64200;55.426;37.758;2023-02-15T06:18:33;99646.94;;;0.07;54.81
75617;BME280;64200;55.426;37.758;2023-02-15T06:23:34;99645.41;;;0.13;54.48
75617;BME280;64200;55.426;37.758;2023-02-15T06:28:35;99668.09;;;0.25;55.15
75617;BME280;64200;55.426;37.758;2023-02-15T06:33:35;99667.72;;;0.15;54.36
75617;BME280;64200;55.426;37.758;2023-02-15T06:38:36;99676.72;;;0.23;54.21
75617;BME280;64200;55.426;37.758;2023-02-15T06:43:36;99675.97;;;0.05;53.93
75617;BME280;64200;55.426;37.758;2023-02-15T06:48:37;99674.78;;;-0.27;54.49
75617;BME280;64200;55.426;37.758;2023-02-15T06:53:37;99665.38;;;-0.15;55.19
75617;BME280;64200;55.426;37.758;2023-02-15T06:58:39;99679.50;;;-0.09;54.59
75617;BME280;64200;55.426;37.758;2023-02-15T07:03:40;99657.56;;;-0.16;53.20
75617;BME280;64200;55.426;37.758;2023-02-15T07:08:40;99672.84;;;-0.19;54.30
75617;BME280;64200;55.426;37.758;2023-02-15T07:13:41;99665.78;;;-0.02;54.46
75617;BME280;64200;55.426;37.758;2023-02-15T07:18:42;99685.75;;;-0.12;54.23
75617;BME280;64200;55.426;37.758;2023-02-15T07:23:43;99678.31;;;-0.23;55.11
75617;BME280;64200;55.426;37.758;2023-02-15T07:28:43;99690.84;;;-0.22;55.53
75617;BME280;64200;55.426;37.758;2023-02-15T07:33:44;99688.88;;;-0.21;55.58
75617;BME280;64200;55.426;37.758;2023-02-15T07:38:45;99665.78;;;-0.13;55.36
75617;BME280;64200;55.426;37.758;2023-02-15T07:43:45;99688.06;;;0.32;54.82
75617;BME280;64200;55.426;37.758;2023-02-15T07:48:46;99698.22;;;0.54;54.88
75617;BME280;64200;55.426;37.758;2023-02-15T07:53:47;99689.59;;;0.55;54.33
75617;BME280;64200;55.426;37.758;2023-02-15T07:58:47;99696.97;;;0.73;54.95
75617;BME280;64200;55.426;37.758;2023-02-15T08:03:52;99695.00;;;0.80;54.37
75617;BME280;64200;55.426;37.758;2023-02-15T08:08:53;99700.03;;;0.96;54.05
75617;BME280;64200;55.426;37.758;2023-02-15T08:14:00;99707.78;;;1.12;52.83
75617;BME280;64200;55.426;37.758;2023-02-15T08:19:10;99715.28;;;1.04;53.02
75617;BME280;64200;55.426;37.758;2023-02-15T08:24:12;99716.50;;;0.96;52.58
75617;BME280;64200;55.426;37.758;2023-02-15T08:29:15;99724.81;;;0.75;52.86
75617;BME280;64200;55.426;37.758;2023-02-15T08:34:18;99718.94;;;0.73;54.03
75617;BME280;64200;55.426;37.758;2023-02-15T08:39:19;99729.81;;;1.01;53.07
75617;BME280;64200;55.426;37.758;2023-02-15T08:44:20;99736.03;;;1.20;53.39
75617;BME280;64200;55.426;37.758;2023-02-15T08:53:12;99734.81;;;1.25;50.71
75617;BME280;64200;55.426;37.758;2023-02-15T08:58:12;99734.03;;;1.28;51.38
75617;BME280;64200;55.426;37.758;2023-02-15T09:03:13;99734.34;;;1.37;50.88
75617;BME280;64200;55.426;37.758;2023-02-15T09:08:14;99738.66;;;1.42;51.15
75617;BME280;64200;55.426;37.758;2023-02-15T09:13:14;99737.50;;;1.35;50.41
75617;BME280;64200;55.426;37.758;2023-02-15T09:18:15;99743.72;;;1.50;51.48
75617;BME280;64200;55.426;37.758;2023-02-15T09:23:17;99751.59;;;1.45;50.82
75617;BME280;64200;55.426;37.758;2023-02-15T09:28:17;99752.03;;;1.36;51.02
75617;BME280;64200;55.426;37.758;2023-02-15T09:33:18;99755.53;;;1.40;51.33
75617;BME280;64200;55.426;37.758;2023-02-15T09:38:18;99757.91;;;1.38;51.69
75617;BME280;64200;55.426;37.758;2023-02-15T09:43:28;99765.44;;;1.19;52.02
75617;BME280;64200;55.426;37.758;2023-02-15T09:48:39;99767.41;;;1.15;52.79
75617;BME280;64200;55.426;37.758;2023-02-15T10:20:47;99790.22;;;1.16;51.27
75617;BME280;64200;55.426;37.758;2023-02-15T10:26:06;99786.22;;;1.28;52.20
75617;BME280;64200;55.426;37.758;2023-02-15T11:07:41;99820.44;;;1.16;50.93
75617;BME280;64200;55.426;37.758;2023-02-15T11:12:45;99816.47;;;1.17;49.18
75617;BME280;64200;55.426;37.758;2023-02-15T11:23:14;99824.44;;;0.79;50.25
75617;BME280;64200;55.426;37.758;2023-02-15T11:28:24;99831.88;;;0.71;50.45
75617;BME280;64200;55.426;37.758;2023-02-15T11:33:35;99822.88;;;0.67;50.78
75617;BME280;64200;55.426;37.758;2023-02-15T11:38:37;99834.22;;;0.87;50.14
75617;BME280;64200;55.426;37.758;2023-02-15T11:43:50;99844.41;;;0.83;50.92
75617;BME280;64200;55.426;37.758;2023-02-15T11:48:54;99844.41;;;0.83;50.22
75617;BME280;64200;55.426;37.758;2023-02-15T11:53:55;99853.47;;;0.76;50.38
75617;BME280;64200;55.426;37.758;2023-02-15T11:59:21;99857.41;;;0.57;50.74
75617;BME280;64200;55.426;37.758;2023-02-15T12:04:29;99868.78;;;0.52;51.58
75617;BME280;64200;55.426;37.758;2023-02-15T12:09:38;99867.97;;;0.48;52.54
75617;BME280;64200;55.426;37.758;2023-02-15T12:14:51;99875.81;;;0.46;51.79
75617;BME280;64200;55.426;37.758;2023-02-15T12:19:59;99892.69;;;0.48;52.10
75617;BME280;64200;55.426;37.758;2023-02-15T12:25:04;99892.69;;;0.55;51.91
75617;BME280;64200;55.426;37.758;2023-02-15T12:30:07;99906.00;;;0.53;51.51
75617;BME280;64200;55.426;37.758;2023-02-15T12:35:33;99898.56;;;0.75;51.95
75617;BME280;64200;55.426;37.758;2023-02-15T12:40:35;99902.88;;;0.40;50.36
75617;BME280;64200;55.426;37.758;2023-02-15T12:45:37;99917.72;;;0.25;50.13
75617;BME280;64200;55.426;37.758;2023-02-15T12:50:42;99924.38;;;0.24;49.86
75617;BME280;64200;55.426;37.758;2023-02-15T12:56:09;99925.16;;;0.10;50.38
75617;BME280;64200;55.426;37.758;2023-02-15T13:06:17;99925.16;;;0.21;50.10
75617;BME280;64200;55.426;37.758;2023-02-15T13:11:26;99949.47;;;0.22;49.35
75617;BME280;64200;55.426;37.758;2023-02-15T13:16:38;99936.03;;;-0.15;50.15
75617;BME280;64200;55.426;37.758;2023-02-15T13:21:41;99943.44;;;-0.23;50.04
75617;BME280;64200;55.426;37.758;2023-02-15T13:26:44;99948.50;;;-0.29;50.04
75617;BME280;64200;55.426;37.758;2023-02-15T13:31:45;99965.31;;;-0.38;50.14
75617;BME280;64200;55.426;37.758;2023-02-15T13:36:57;99974.34;;;-0.33;50.12
75617;BME280;64200;55.426;37.758;2023-02-15T13:42:25;99966.13;;;-0.30;49.89
75617;BME280;64200;55.426;37.758;2023-02-15T13:53:02;99977.16;;;-0.15;49.99
75617;BME280;64200;55.426;37.758;2023-02-15T14:03:36;100001.16;;;-0.61;50.10
75617;BME280;64200;55.426;37.758;2023-02-15T14:25:03;100010.97;;;-0.60;50.67
75617;BME280;64200;55.426;37.758;2023-02-15T14:35:23;100016.00;;;-0.69;51.12
75617;BME280;64200;55.426;37.758;2023-02-15T14:51:10;100021.78;;;-0.81;51.52
75617;BME280;64200;55.426;37.758;2023-02-15T15:01:11;100027.28;;;-0.78;52.04
75617;BME280;64200;55.426;37.758;2023-02-15T15:06:25;100032.63;;;-0.92;52.25
75617;BME280;64200;55.426;37.758;2023-02-15T15:26:46;100076.91;;;-0.86;52.13
75617;BME280;64200;55.426;37.758;2023-02-15T15:31:53;100074.00;;;-1.01;52.55
75617;BME280;64200;55.426;37.758;2023-02-15T15:53:29;100099.75;;;-1.09;53.08
75617;BME280;64200;55.426;37.758;2023-02-15T15:58:33;100095.41;;;-1.14;52.87
75617;BME280;64200;55.426;37.758;2023-02-15T16:03:34;100094.31;;;-1.06;53.20
75617;BME280;64200;55.426;37.758;2023-02-15T16:08:38;100101.69;;;-1.10;52.52
75617;BME280;64200;55.426;37.758;2023-02-15T16:13:40;100099.78;;;-1.06;53.06
75617;BME280;64200;55.426;37.758;2023-02-15T16:18:41;100093.75;;;-1.22;53.43
75617;BME280;64200;55.426;37.758;2023-02-15T16:24:15;100120.91;;;-1.06;53.17
75617;BME280;64200;55.426;37.758;2023-02-15T16:29:33;100113.56;;;-0.98;53.41
75617;BME280;64200;55.426;37.758;2023-02-15T16:34:34;100111.19;;;-1.00;52.87
75617;BME280;64200;55.426;37.758;2023-02-15T16:39:40;100113.63;;;-0.91;53.25
75617;BME280;64200;55.426;37.758;2023-02-15T16:44:41;100119.19;;;-0.84;52.81
75617;BME280;64200;55.426;37.758;2023-02-15T16:49:48;100118.63;;;-1.00;52.73
75617;BME280;64200;55.426;37.758;2023-02-15T17:00:02;100123.34;;;-0.97;53.41
75617;BME280;64200;55.426;37.758;2023-02-15T17:10:46;100133.28;;;-0.82;53.50
75617;BME280;64200;55.426;37.758;2023-02-15T17:21:10;100124.56;;;-0.95;54.19
75617;BME280;64200;55.426;37.758;2023-02-15T17:26:18;100134.84;;;-0.81;53.79
75617;BME280;64200;55.426;37.758;2023-02-15T17:31:21;100129.38;;;-0.81;54.11
75617;BME280;64200;55.426;37.758;2023-02-15T17:36:26;100124.22;;;-0.86;54.01
75617;BME280;64200;55.426;37.758;2023-02-15T17:41:32;100129.38;;;-0.81;54.08
75617;BME280;64200;55.426;37.758;2023-02-15T17:46:36;100135.25;;;-0.79;53.40
75617;BME280;64200;55.426;37.758;2023-02-15T17:51:37;100130.84;;;-0.91;53.86
75617;BME280;64200;55.426;37.758;2023-02-15T17:56:38;100138.34;;;-0.84;54.12
75617;BME280;64200;55.426;37.758;2023-02-15T18:01:48;100143.41;;;-0.86;53.67
75617;BME280;64200;55.426;37.758;2023-02-15T18:07:09;100148.47;;;-0.88;53.69
75617;BME280;64200;55.426;37.758;2023-02-15T18:12:33;100149.72;;;-0.82;53.43
75617;BME280;64200;55.426;37.758;2023-02-15T18:17:38;100148.50;;;-0.84;53.35
75617;BME280;64200;55.426;37.758;2023-02-15T18:22:40;100139.19;;;-0.76;53.10
75617;BME280;64200;55.426;37.758;2023-02-15T18:27:40;100125.88;;;-0.81;53.48
75617;BME280;64200;55.426;37.758;2023-02-15T18:32:41;100124.72;;;-0.77;52.75
75617;BME280;64200;55.426;37.758;2023-02-15T18:37:42;100130.69;;;-0.67;53.88
75617;BME280;64200;55.426;37.758;2023-02-15T18:42:46;100109.75;;;-0.86;52.37
75617;BME280;64200;55.426;37.758;2023-02-15T18:47:48;100134.47;;;-0.79;53.40
75617;BME280;64200;55.426;37.758;2023-02-15T18:52:49;100129.00;;;-0.79;53.43
75617;BME280;64200;55.426;37.758;2023-02-15T18:57:53;100129.00;;;-0.79;52.75
75617;BME280;64200;55.426;37.758;2023-02-15T19:02:55;100135.72;;;-0.73;53.28
75617;BME280;64200;55.426;37.758;2023-02-15T19:07:57;100115.69;;;-0.81;53.54
75617;BME280;64200;55.426;37.758;2023-02-15T19:12:59;100131.94;;;-0.99;53.35
75617;BME280;64200;55.426;37.758;2023-02-15T19:17:59;100127.63;;;-1.00;53.65
75617;BME280;64200;55.426;37.758;2023-02-15T19:23:00;100141.78;;;-0.91;53.58
75617;BME280;64200;55.426;37.758;2023-02-15T19:28:11;100132.44;;;-0.86;53.45
75617;BME280;64200;55.426;37.758;2023-02-15T19:33:17;100124.09;;;-1.00;53.76
75617;BME280;64200;55.426;37.758;2023-02-15T19:38:28;100125.22;;;-1.05;54.21
75617;BME280;64200;55.426;37.758;2023-02-15T19:43:29;100137.13;;;-0.90;54.12
75617;BME280;64200;55.426;37.758;2023-02-15T19:48:30;100133.25;;;-0.85;53.77
75617;BME280;64200;55.426;37.758;2023-02-15T19:53:31;100143.44;;;-0.82;54.51
75617;BME280;64200;55.426;37.758;2023-02-15T19:58:31;100137.53;;;-0.84;54.16
75617;BME280;64200;55.426;37.758;2023-02-15T20:03:33;100130.91;;;-0.83;54.96
75617;BME280;64200;55.426;37.758;2023-02-15T20:08:33;100131.66;;;-0.90;54.48
75617;BME280;64200;55.426;37.758;2023-02-15T20:13:34;100142.28;;;-0.81;54.39
75617;BME280;64200;55.426;37.758;2023-02-15T20:18:35;100138.38;;;-0.80;54.59
75617;BME280;64200;55.426;37.758;2023-02-15T20:23:35;100139.97;;;-0.79;54.93
75617;BME280;64200;55.426;37.758;2023-02-15T20:28:36;100139.56;;;-0.78;54.06
75617;BME280;64200;55.426;37.758;2023-02-15T20:33:37;100129.41;;;-0.77;54.73
75617;BME280;64200;55.426;37.758;2023-02-15T20:38:37;100134.16;;;-0.71;54.21
75617;BME280;64200;55.426;37.758;2023-02-15T20:43:38;100136.38;;;-0.83;54.51
75617;BME280;64200;55.426;37.758;2023-02-15T20:48:39;100130.91;;;-0.83;55.28
75617;BME280;64200;55.426;37.758;2023-02-15T20:53:42;100124.97;;;-0.89;54.49
75617;BME280;64200;55.426;37.758;2023-02-15T20:58:43;100133.63;;;-0.87;54.92
75617;BME280;64200;55.426;37.758;2023-02-15T21:03:44;100148.16;;;-0.83;55.50
75617;BME280;64200;55.426;37.758;2023-02-15T21:08:45;100129.69;;;-0.90;55.42
75617;BME280;64200;55.426;37.758;2023-02-15T21:13:46;100137.97;;;-0.82;55.48
75617;BME280;64200;55.426;37.758;2023-02-15T21:18:48;100134.47;;;-0.83;55.29
75617;BME280;64200;55.426;37.758;2023-02-15T21:23:49;100141.16;;;-0.77;55.67
75617;BME280;64200;55.426;37.758;2023-02-15T21:28:51;100139.56;;;-0.78;55.55
75617;BME280;64200;55.426;37.758;2023-02-15T21:33:51;100134.84;;;-0.81;55.03
75617;BME280;64200;55.426;37.758;2023-02-15T21:38:52;100140.34;;;-0.77;55.78
75617;BME280;64200;55.426;37.758;2023-02-15T21:43:53;100130.91;;;-0.83;56.03
75617;BME280;64200;55.426;37.758;2023-02-15T21:49:12;100140.72;;;-0.82;55.96
75617;BME280;64200;55.426;37.758;2023-02-15T21:54:14;100136.75;;;-0.89;56.37
75617;BME280;64200;55.426;37.758;2023-02-15T21:59:16;100137.03;;;-0.97;55.80
75617;BME280;64200;55.426;37.758;2023-02-15T22:04:35;100134.31;;;-0.97;56.19
75617;BME280;64200;55.426;37.758;2023-02-15T22:09:36;100131.00;;;-1.14;56.37
75617;BME280;64200;55.426;37.758;2023-02-15T22:14:39;100132.16;;;-1.15;56.79
75617;BME280;64200;55.426;37.758;2023-02-15T22:19:41;100140.91;;;-1.02;56.41
75617;BME280;64200;55.426;37.758;2023-02-15T22:24:42;100140.09;;;-1.02;56.68
75617;BME280;64200;55.426;37.758;2023-02-15T22:29:43;100127.16;;;-1.06;56.31
75617;BME280;64200;55.426;37.758;2023-02-15T22:34:45;100133.06;;;-1.03;56.99
75617;BME280;64200;55.426;37.758;2023-02-15T22:39:45;100123.13;;;-1.19;56.70
75617;BME280;64200;55.426;37.758;2023-02-15T22:44:46;100132.19;;;-1.11;57.26
75617;BME280;64200;55.426;37.758;2023-02-15T22:49:47;100137.28;;;-1.10;56.68
75617;BME280;64200;55.426;37.758;2023-02-15T22:54:48;100138.50;;;-1.07;56.83
75617;BME280;64200;55.426;37.758;2023-02-15T22:59:48;100127.47;;;-1.14;56.82
75617;BME280;64200;55.426;37.758;2023-02-15T23:04:49;100137.28;;;-1.10;56.46
75617;BME280;64200;55.426;37.758;2023-02-15T23:09:50;100129.41;;;-1.15;56.38
75617;BME280;64200;55.426;37.758;2023-02-15T23:14:51;100127.09;;;-1.13;56.45
75617;BME280;64200;55.426;37.758;2023-02-15T23:19:52;100121.59;;;-1.16;56.16
75617;BME280;64200;55.426;37.758;2023-02-15T23:24:53;100123.19;;;-1.12;55.85
75617;BME280;64200;55.426;37.758;2023-02-15T23:29:53;100115.75;;;-1.11;56.15
75617;BME280;64200;55.426;37.758;2023-02-15T23:34:54;100123.56;;;-1.13;55.78
75617;BME280;64200;55.426;37.758;2023-02-15T23:39:54;100123.84;;;-1.26;55.60
75617;BME280;64200;55.426;37.758;2023-02-15T23:45:21;100119.22;;;-1.18;55.48
75617;BME280;64200;55.426;37.758;2023-02-15T23:50:27;100116.13;;;-1.13;56.08
75617;BME280;64200;55.426;37.758;2023-02-15T23:55:38;100120.34;;;-1.22;55.53
